Terminal Aerodrome Forecast
Issued by NWS

Home | Current Version | Previous Version | Text Only | Print | Product List | Glossary Off
Versions: 1 2 3 4 5 6 7 8 9 10 11 12 13 14 15 16

000
FTUS43 KOAX 190500
TAFCDR
TAF
KCDR 190520Z 1906/2006 VRB04KT P6SM SCT250
     FM191900 35005KT P6SM SCT250
     FM200000 13005KT P6SM SCT250=

USA.gov is the U.S. government's official web portal to all federal, state and local government web resources and services.